Time;durP1;ratioP1;P1;durP2;ratioP2;P2;SDS_P1;SDS_P2;PMS_P1;PMS_P2;Temp;Humidity;BMP_temperature;BMP_pressure;BME280_temperature;BME280_humidity;BME280_pressure;Samples;Min_cycle;Max_cycle;Signal;HPM_P1;HPM_P2
2023/08/31 00:02:12;;;;;;;7.20;3.20;;;;;;;17.46;100.00;-18497.19;5010903;28;20067;-76
2023/08/31 00:04:37;;;;;;;6.88;3.33;;;;;;;17.44;100.00;-18496.50;5027968;28;20069;-76
2023/08/31 00:07:03;;;;;;;7.85;3.72;;;;;;;17.56;100.00;-18499.94;5029051;28;20489;-76
2023/08/31 00:09:29;;;;;;;9.55;3.83;;;;;;;17.56;100.00;-18499.94;5028536;28;20164;-75
2023/08/31 00:11:56;;;;;;;8.10;4.07;;;;;;;17.73;100.00;-18504.44;5024704;28;20034;-76
2023/08/31 00:14:22;;;;;;;8.10;4.20;;;;;;;17.60;100.00;-18500.88;5024210;28;20551;-76
2023/08/31 00:16:47;;;;;;;8.52;4.82;;;;;;;17.74;100.00;-18504.69;5028631;28;20041;-76
2023/08/31 00:19:14;;;;;;;9.68;3.92;;;;;;;17.67;100.00;-18502.78;5028432;28;20089;-76
2023/08/31 00:21:40;;;;;;;8.02;4.45;;;;;;;17.74;100.00;-18504.69;5029067;28;20048;-76
2023/08/31 00:24:05;;;;;;;7.85;4.45;;;;;;;17.74;100.00;-18504.69;5021439;28;20042;-76
2023/08/31 00:26:31;;;;;;;7.15;4.20;;;;;;;17.67;100.00;-18502.66;5010510;28;20091;-75
2023/08/31 00:28:57;;;;;;;6.95;3.92;;;;;;;17.80;100.00;-18506.34;5024146;28;20091;-76
2023/08/31 00:31:22;;;;;;;6.78;4.03;;;;;;;17.98;100.00;-18511.13;5000549;28;20087;-76
2023/08/31 00:33:48;;;;;;;7.65;3.47;;;;;;;17.68;100.00;-18502.94;5026258;28;20045;-76
2023/08/31 00:36:14;;;;;;;7.93;4.20;;;;;;;17.74;100.00;-18504.56;5027409;28;20512;-76
2023/08/31 00:38:39;;;;;;;7.65;4.13;;;;;;;17.41;100.00;-18495.69;5028881;28;20108;-76
2023/08/31 00:41:05;;;;;;;7.78;3.83;;;;;;;17.61;100.00;-18501.16;5028827;28;20037;-76
2023/08/31 00:43:31;;;;;;;8.73;4.07;;;;;;;17.59;100.00;-18500.59;5028876;28;20505;-76
2023/08/31 00:45:58;;;;;;;8.20;3.25;;;;;;;17.42;100.00;-18495.97;5013529;28;20040;-75
2023/08/31 00:48:24;;;;;;;8.02;3.45;;;;;;;17.00;100.00;-18484.78;5027982;28;20061;-77
2023/08/31 00:50:50;;;;;;;5.32;3.80;;;;;;;17.52;100.00;-18498.84;5027902;28;20444;-76
2023/08/31 00:53:16;;;;;;;7.13;3.67;;;;;;;17.33;100.00;-18493.66;5028953;28;20095;-76
2023/08/31 00:55:44;;;;;;;5.15;3.15;;;;;;;17.35;100.00;-18494.19;5028502;28;20497;-76
2023/08/31 00:58:09;;;;;;;8.02;3.22;;;;;;;17.24;100.00;-18491.31;5028386;28;20041;-76
2023/08/31 01:00:55;;;;;;;6.65;3.13;;;;;;;17.23;100.00;-18491.06;5029414;28;20091;-77
2023/08/31 01:03:48;;;;;;;8.73;3.88;;;;;;;17.17;100.00;-18489.41;5031670;28;20036;-76
2023/08/31 01:06:41;;;;;;;5.07;3.35;;;;;;;17.29;100.00;-18492.69;5024956;28;20049;-76
2023/08/31 01:09:32;;;;;;;5.55;3.10;;;;;;;16.56;100.00;-18473.03;5007982;28;20868;-77
2023/08/31 01:12:06;;;;;;;5.78;3.20;;;;;;;16.51;100.00;-18471.78;4997942;28;20492;-76
2023/08/31 01:14:50;;;;;;;5.60;3.42;;;;;;;16.55;100.00;-18472.88;5014247;28;20561;-77
2023/08/31 01:17:17;;;;;;;5.53;3.40;;;;;;;16.37;100.00;-18467.97;5029009;28;20529;-76
2023/08/31 01:19:48;;;;;;;6.93;3.83;;;;;;;16.55;100.00;-18472.75;5029561;28;20100;-76
2023/08/31 01:22:35;;;;;;;5.53;3.30;;;;;;;16.68;100.00;-18476.44;5027285;28;20060;-76
2023/08/31 01:25:04;;;;;;;7.13;3.78;;;;;;;16.28;100.00;-18465.50;4977378;28;20037;-77
2023/08/31 01:27:31;;;;;;;6.63;3.42;;;;;;;16.21;100.00;-18463.88;5028217;28;20046;-77
2023/08/31 01:29:57;;;;;;;7.20;4.15;;;;;;;16.11;100.00;-18461.00;5028844;28;20037;-76
2023/08/31 01:32:22;;;;;;;7.63;3.53;;;;;;;16.01;100.00;-18458.53;5027612;28;20041;-75
2023/08/31 01:34:50;;;;;;;5.68;3.28;;;;;;;16.12;100.00;-18461.28;5027075;28;20048;-76
2023/08/31 01:37:21;;;;;;;5.80;3.88;;;;;;;15.85;100.00;-18454.16;5026352;28;20056;-76
2023/08/31 01:39:52;;;;;;;7.47;3.75;;;;;;;15.88;100.00;-18454.97;5023386;28;20045;-75
2023/08/31 01:42:17;;;;;;;6.13;4.22;;;;;;;15.87;100.00;-18454.56;5022697;28;20038;-76
2023/08/31 01:44:48;;;;;;;7.45;3.58;;;;;;;15.95;100.00;-18456.91;5027578;28;20040;-77
2023/08/31 01:47:16;;;;;;;8.32;4.22;;;;;;;16.00;100.00;-18458.25;5027639;28;20029;-76
2023/08/31 01:49:43;;;;;;;7.47;4.07;;;;;;;16.01;100.00;-18458.53;5030044;28;20041;-77
2023/08/31 01:52:08;;;;;;;7.95;3.95;;;;;;;16.11;100.00;-18461.00;5032776;28;20045;-76
2023/08/31 01:54:34;;;;;;;8.25;4.35;;;;;;;16.00;100.00;-18458.25;5025873;28;20523;-77
2023/08/31 01:56:59;;;;;;;8.55;4.72;;;;;;;16.02;100.00;-18458.81;5027329;28;20039;-77
2023/08/31 01:59:25;;;;;;;9.02;4.13;;;;;;;15.91;100.00;-18455.66;5027691;28;20038;-76
2023/08/31 02:01:50;;;;;;;7.30;4.45;;;;;;;16.05;100.00;-18459.50;5028823;28;20045;-76
2023/08/31 02:04:16;;;;;;;7.05;5.18;;;;;;;15.84;100.00;-18453.75;5010758;28;20049;-76
2023/08/31 02:06:41;;;;;;;7.43;5.32;;;;;;;15.79;100.00;-18452.53;5029081;28;20559;-76
2023/08/31 02:09:07;;;;;;;7.95;5.28;;;;;;;15.73;100.00;-18450.88;5029083;28;20045;-76
2023/08/31 02:11:35;;;;;;;8.38;5.35;;;;;;;15.86;100.00;-18454.31;5006578;28;21954;-76
2023/08/31 02:14:01;;;;;;;9.68;5.65;;;;;;;15.86;100.00;-18454.44;5007650;28;20076;-76
2023/08/31 02:16:26;;;;;;;12.13;6.63;;;;;;;15.95;100.00;-18456.75;5025123;28;20069;-76
2023/08/31 02:18:51;;;;;;;10.13;6.78;;;;;;;16.00;100.00;-18458.13;5018933;28;20041;-77
2023/08/31 02:21:17;;;;;;;8.75;5.80;;;;;;;15.88;100.00;-18454.97;5025715;28;20543;-76
2023/08/31 02:23:42;;;;;;;9.02;6.78;;;;;;;15.86;100.00;-18454.44;5025841;28;20042;-76
2023/08/31 02:26:07;;;;;;;12.20;8.25;;;;;;;15.99;100.00;-18457.84;5022667;28;20053;-76
2023/08/31 02:28:33;;;;;;;13.90;7.22;;;;;;;15.93;100.00;-18456.34;5023484;28;20045;-77
2023/08/31 02:31:01;;;;;;;13.77;8.50;;;;;;;16.03;100.00;-18458.94;5015581;28;20037;-76
2023/08/31 02:33:26;;;;;;;13.90;9.32;;;;;;;15.98;100.00;-18457.72;5026291;28;20077;-77
2023/08/31 02:35:55;;;;;;;14.18;9.50;;;;;;;15.87;100.00;-18454.56;5025636;28;20064;-76
2023/08/31 02:38:21;;;;;;;14.38;9.05;;;;;;;15.82;100.00;-18453.19;5020698;28;20040;-76
2023/08/31 02:40:47;;;;;;;15.00;9.20;;;;;;;15.68;100.00;-18449.50;4999409;28;20033;-76
2023/08/31 02:43:13;;;;;;;13.70;9.70;;;;;;;15.76;100.00;-18451.69;5007901;28;20026;-76
2023/08/31 02:45:39;;;;;;;16.33;10.18;;;;;;;15.64;100.00;-18448.41;5007527;28;20049;-75
2023/08/31 02:48:07;;;;;;;15.80;11.32;;;;;;;15.68;100.00;-18449.66;5026215;28;20132;-77
2023/08/31 02:50:34;;;;;;;15.55;11.15;;;;;;;15.73;100.00;-18451.00;5009960;28;20083;-76
2023/08/31 02:52:59;;;;;;;14.70;10.63;;;;;;;15.77;100.00;-18451.97;5025046;28;20489;-76
2023/08/31 02:55:24;;;;;;;17.55;12.23;;;;;;;15.90;100.00;-18455.53;5026748;28;20049;-77
2023/08/31 02:57:50;;;;;;;18.27;12.95;;;;;;;15.70;100.00;-18450.06;5027612;28;20126;-76
2023/08/31 03:00:16;;;;;;;17.23;11.57;;;;;;;15.55;100.00;-18446.22;5009622;28;20037;-76
2023/08/31 03:02:43;;;;;;;19.23;12.73;;;;;;;15.58;100.00;-18446.91;5024560;28;20052;-76
2023/08/31 03:05:09;;;;;;;18.65;11.75;;;;;;;15.56;100.00;-18446.34;5028839;28;20041;-77
2023/08/31 03:07:34;;;;;;;19.45;13.35;;;;;;;15.70;100.00;-18450.06;5029533;28;20459;-76
2023/08/31 03:09:59;;;;;;;19.58;12.30;;;;;;;15.80;100.00;-18452.78;5027002;28;20676;-76
2023/08/31 03:12:25;;;;;;;18.00;10.65;;;;;;;15.63;100.00;-18448.13;5028975;28;20554;-76
2023/08/31 03:14:50;;;;;;;18.92;12.95;;;;;;;15.62;100.00;-18447.88;5023605;28;20056;-76
2023/08/31 03:17:15;;;;;;;18.83;12.80;;;;;;;15.61;100.00;-18447.59;5030150;28;20033;-76
2023/08/31 03:19:41;;;;;;;22.17;13.15;;;;;;;15.65;100.00;-18448.81;5026977;28;20064;-77
2023/08/31 03:22:06;;;;;;;20.92;14.40;;;;;;;15.69;100.00;-18449.78;5024027;28;20042;-76
2023/08/31 03:24:35;;;;;;;19.88;13.50;;;;;;;15.32;100.00;-18439.94;5026665;28;20049;-76
2023/08/31 03:27:00;;;;;;;18.67;12.90;;;;;;;15.28;100.00;-18438.97;5023364;28;20041;-75
2023/08/31 03:29:25;;;;;;;19.40;12.52;;;;;;;15.17;100.00;-18435.84;5023064;28;20047;-76
2023/08/31 03:31:51;;;;;;;16.25;11.00;;;;;;;15.21;100.00;-18437.06;5029855;28;20046;-76
2023/08/31 03:34:16;;;;;;;17.30;12.32;;;;;;;15.15;100.00;-18435.28;5004895;28;20180;-76
2023/08/31 03:36:41;;;;;;;21.55;13.25;;;;;;;15.18;100.00;-18436.09;5028775;28;20038;-76
2023/08/31 03:39:06;;;;;;;20.60;12.23;;;;;;;15.25;100.00;-18438.16;5005355;28;20056;-76
2023/08/31 03:41:32;;;;;;;22.23;15.57;;;;;;;15.39;100.00;-18441.84;5029527;28;20042;-77
2023/08/31 03:43:57;;;;;;;23.77;14.63;;;;;;;15.26;100.00;-18438.28;5004896;28;20045;-76
2023/08/31 03:46:24;;;;;;;21.45;13.82;;;;;;;15.33;100.00;-18440.34;5027370;28;20046;-76
2023/08/31 03:48:49;;;;;;;21.65;13.82;;;;;;;15.35;100.00;-18440.75;5025107;28;20038;-76
2023/08/31 03:51:14;;;;;;;19.23;12.60;;;;;;;15.30;100.00;-18439.53;5026973;28;20086;-77
2023/08/31 03:53:40;;;;;;;21.02;13.90;;;;;;;15.20;100.00;-18436.66;5009129;28;20103;-77
2023/08/31 03:56:05;;;;;;;20.67;12.98;;;;;;;15.18;100.00;-18436.09;5006486;28;20405;-76
2023/08/31 03:58:31;;;;;;;24.70;15.27;;;;;;;15.28;100.00;-18438.84;5027350;28;20041;-76
2023/08/31 04:00:56;;;;;;;22.75;13.98;;;;;;;15.38;100.00;-18441.56;5011029;28;20064;-77
2023/08/31 04:03:22;;;;;;;21.27;12.85;;;;;;;15.27;100.00;-18438.56;5027032;28;20049;-77
2023/08/31 04:05:47;;;;;;;22.15;13.52;;;;;;;15.30;100.00;-18439.53;5012166;28;20049;-76
2023/08/31 04:08:13;;;;;;;28.40;15.07;;;;;;;15.28;100.00;-18438.84;5007533;28;20060;-77
2023/08/31 04:10:38;;;;;;;19.10;13.15;;;;;;;15.22;100.00;-18437.34;5029368;28;20041;-76
2023/08/31 04:13:03;;;;;;;23.45;14.70;;;;;;;15.29;100.00;-18439.13;5031626;28;20044;-77
2023/08/31 04:15:30;;;;;;;21.92;13.93;;;;;;;15.28;100.00;-18438.97;5024801;28;20038;-77
2023/08/31 04:17:56;;;;;;;24.75;15.65;;;;;;;15.36;100.00;-18441.03;5022566;28;20060;-77
2023/08/31 04:20:21;;;;;;;26.60;16.30;;;;;;;15.30;100.00;-18439.38;5035343;28;20499;-76
2023/08/31 04:22:47;;;;;;;23.40;15.27;;;;;;;15.43;100.00;-18442.81;5017184;28;20413;-77
2023/08/31 04:25:12;;;;;;;25.40;16.27;;;;;;;15.48;100.00;-18444.19;5011476;28;20052;-76
2023/08/31 04:27:39;;;;;;;24.45;13.70;;;;;;;15.40;100.00;-18442.00;5010471;28;20093;-76
2023/08/31 04:30:06;;;;;;;24.98;16.58;;;;;;;15.31;100.00;-18439.66;5025872;28;20042;-77
2023/08/31 04:32:32;;;;;;;23.95;16.45;;;;;;;15.39;100.00;-18441.84;5017356;28;20041;-76
2023/08/31 04:34:58;;;;;;;24.85;15.57;;;;;;;15.41;100.00;-18442.41;5018121;28;20068;-75
2023/08/31 04:37:23;;;;;;;24.27;15.65;;;;;;;15.48;100.00;-18444.31;5020242;28;20455;-76
2023/08/31 04:39:48;;;;;;;27.75;18.50;;;;;;;15.49;100.00;-18444.44;5026952;28;20037;-76
2023/08/31 04:42:16;;;;;;;25.95;16.40;;;;;;;15.39;100.00;-18441.72;5023471;28;20136;-76
2023/08/31 04:44:42;;;;;;;26.20;18.40;;;;;;;15.63;100.00;-18448.28;5017061;28;20041;-76
2023/08/31 04:47:07;;;;;;;25.50;16.55;;;;;;;15.69;100.00;-18449.78;5023527;28;20049;-76
2023/08/31 04:49:32;;;;;;;25.52;15.38;;;;;;;15.67;100.00;-18449.22;5021521;28;20072;-76
2023/08/31 04:51:58;;;;;;;22.80;16.25;;;;;;;15.79;100.00;-18452.53;5021912;28;20132;-75
2023/08/31 04:54:24;;;;;;;25.48;17.13;;;;;;;15.92;100.00;-18456.06;5022931;28;20084;-76
2023/08/31 04:56:49;;;;;;;27.13;17.15;;;;;;;15.90;100.00;-18455.38;5020419;28;20069;-76
2023/08/31 04:59:14;;;;;;;26.77;16.85;;;;;;;15.53;100.00;-18445.69;5020089;28;20046;-76
2023/08/31 05:01:40;;;;;;;26.65;16.88;;;;;;;15.47;100.00;-18444.03;5003204;28;20049;-76
2023/08/31 05:04:05;;;;;;;27.70;17.73;;;;;;;15.39;100.00;-18441.84;5024227;28;20628;-77
2023/08/31 05:06:31;;;;;;;26.83;17.30;;;;;;;15.57;100.00;-18446.78;5020012;28;20044;-77
2023/08/31 05:08:56;;;;;;;31.50;19.75;;;;;;;15.58;100.00;-18447.03;5003305;28;20046;-76
2023/08/31 05:11:22;;;;;;;29.80;18.60;;;;;;;15.56;100.00;-18446.50;5015184;28;20124;-76
2023/08/31 05:13:48;;;;;;;29.52;19.27;;;;;;;15.53;100.00;-18445.69;5026260;28;20071;-76
2023/08/31 05:16:13;;;;;;;31.33;20.95;;;;;;;15.63;100.00;-18448.13;5025360;28;20113;-77
2023/08/31 05:18:40;;;;;;;28.02;18.27;;;;;;;15.53;100.00;-18445.53;5026914;28;20121;-77
2023/08/31 05:21:06;;;;;;;26.73;16.83;;;;;;;15.43;100.00;-18442.81;5027722;28;20025;-76
2023/08/31 05:23:31;;;;;;;32.60;19.77;;;;;;;15.51;100.00;-18445.00;5027520;28;20269;-76
2023/08/31 05:25:57;;;;;;;28.73;17.67;;;;;;;15.42;100.00;-18442.53;5013608;28;20041;-76
2023/08/31 05:28:23;;;;;;;31.13;18.50;;;;;;;15.58;100.00;-18446.91;5019223;28;20485;-76
2023/08/31 05:30:50;;;;;;;30.25;19.50;;;;;;;15.55;100.00;-18446.22;5019618;28;20049;-76
2023/08/31 05:33:16;;;;;;;26.25;17.25;;;;;;;15.53;100.00;-18445.69;5008612;28;20045;-76
2023/08/31 05:35:42;;;;;;;29.75;19.42;;;;;;;15.58;100.00;-18447.03;5022460;28;20116;-77
2023/08/31 05:38:07;;;;;;;31.42;19.38;;;;;;;15.64;100.00;-18448.41;5018529;28;20082;-77
2023/08/31 05:40:32;;;;;;;29.60;18.50;;;;;;;15.76;100.00;-18451.69;5026257;28;20041;-77
2023/08/31 05:42:58;;;;;;;29.70;17.65;;;;;;;15.70;100.00;-18450.19;5026601;28;20037;-75
2023/08/31 05:45:23;;;;;;;31.33;20.00;;;;;;;15.72;100.00;-18450.59;5002239;28;20069;-76
2023/08/31 05:47:49;;;;;;;26.40;16.30;;;;;;;15.66;100.00;-18448.97;5027489;28;20051;-76
2023/08/31 05:50:14;;;;;;;28.45;19.08;;;;;;;15.53;100.00;-18445.69;5027095;28;20071;-76
2023/08/31 05:52:43;;;;;;;31.40;20.08;;;;;;;15.65;100.00;-18448.69;5025271;28;20049;-76
2023/08/31 05:55:09;;;;;;;32.42;20.75;;;;;;;15.56;100.00;-18446.50;5026626;28;20095;-77
2023/08/31 05:57:35;;;;;;;32.60;20.45;;;;;;;15.57;100.00;-18446.78;5026003;28;20464;-76
2023/08/31 06:00:00;;;;;;;28.17;17.35;;;;;;;15.61;100.00;-18447.59;5027766;28;20073;-76
2023/08/31 06:02:26;;;;;;;31.88;19.70;;;;;;;15.71;100.00;-18450.34;5027041;28;20045;-77
2023/08/31 06:04:51;;;;;;;30.92;18.38;;;;;;;15.69;100.00;-18449.78;5013759;28;20034;-75
2023/08/31 06:07:16;;;;;;;31.75;21.02;;;;;;;15.66;100.00;-18449.09;5025531;28;20114;-77
2023/08/31 06:09:42;;;;;;;30.88;21.45;;;;;;;15.68;100.00;-18449.66;5024644;28;20068;-76
2023/08/31 06:12:07;;;;;;;32.03;19.48;;;;;;;15.65;100.00;-18448.69;5026350;28;20496;-77
2023/08/31 06:14:33;;;;;;;32.60;19.55;;;;;;;15.63;100.00;-18448.13;5017953;28;20513;-77
2023/08/31 06:16:58;;;;;;;32.80;20.40;;;;;;;15.66;100.00;-18448.97;5012536;28;20049;-77
2023/08/31 06:19:24;;;;;;;30.63;20.90;;;;;;;15.77;100.00;-18451.97;5023380;28;20040;-76
2023/08/31 06:21:49;;;;;;;28.90;18.15;;;;;;;15.77;100.00;-18451.97;5028513;28;20044;-77
2023/08/31 06:24:14;;;;;;;33.50;19.98;;;;;;;15.90;100.00;-18455.53;5031078;28;20072;-76
2023/08/31 06:26:40;;;;;;;28.58;18.25;;;;;;;15.89;100.00;-18455.25;5030433;28;20073;-77
2023/08/31 06:29:07;;;;;;;30.90;20.40;;;;;;;15.96;100.00;-18457.16;5013657;28;20087;-77
2023/08/31 06:31:33;;;;;;;33.97;21.15;;;;;;;15.98;100.00;-18457.72;5029407;28;20037;-76
2023/08/31 06:33:58;;;;;;;30.30;19.30;;;;;;;15.96;100.00;-18457.16;5030803;28;20519;-77
2023/08/31 06:36:24;;;;;;;31.63;20.02;;;;;;;16.03;100.00;-18458.94;5026460;28;20033;-76
2023/08/31 06:38:49;;;;;;;31.00;18.67;;;;;;;15.99;100.00;-18457.84;5031157;28;20044;-76
2023/08/31 06:41:15;;;;;;;28.85;18.42;;;;;;;16.01;100.00;-18458.53;5031431;28;20378;-76
2023/08/31 06:43:41;;;;;;;31.20;19.35;;;;;;;16.00;100.00;-18458.25;5012000;28;20040;-77
2023/08/31 06:46:06;;;;;;;26.38;17.58;;;;;;;16.05;100.00;-18459.34;5027452;28;20120;-76
2023/08/31 06:48:31;;;;;;;28.42;18.40;;;;;;;16.08;100.00;-18460.31;5027846;28;20469;-77
2023/08/31 06:50:57;;;;;;;30.33;19.55;;;;;;;16.29;100.00;-18465.91;5034201;28;20510;-76
2023/08/31 06:53:22;;;;;;;28.90;19.23;;;;;;;16.15;100.00;-18462.09;5027921;28;20041;-77
2023/08/31 06:55:48;;;;;;;27.55;17.40;;;;;;;16.26;100.00;-18465.09;5019808;28;20049;-77
2023/08/31 06:58:13;;;;;;;31.38;19.67;;;;;;;16.43;100.00;-18469.59;5028749;28;20041;-77
2023/08/31 07:00:38;;;;;;;27.92;19.58;;;;;;;16.47;100.00;-18470.69;5028544;28;20045;-77
2023/08/31 07:03:06;;;;;;;27.23;18.83;;;;;;;16.40;100.00;-18468.94;5014000;28;20037;-76
2023/08/31 07:05:37;;;;;;;23.85;15.90;;;;;;;16.41;100.00;-18469.19;5025343;28;20378;-77
2023/08/31 07:08:02;;;;;;;25.85;16.77;;;;;;;16.55;100.00;-18472.75;5030119;28;20087;-77
2023/08/31 07:10:28;;;;;;;24.88;17.77;;;;;;;16.77;100.00;-18478.75;5025362;28;20037;-77
2023/08/31 07:12:53;;;;;;;25.80;16.80;;;;;;;16.93;100.00;-18483.00;5028724;28;20485;-77
2023/08/31 07:15:19;;;;;;;27.75;17.45;;;;;;;16.95;100.00;-18483.41;5018882;28;20050;-77
2023/08/31 07:17:44;;;;;;;26.23;17.42;;;;;;;16.89;100.00;-18482.03;5028517;28;20037;-77
2023/08/31 07:20:11;;;;;;;28.45;16.60;;;;;;;16.83;100.00;-18480.41;5027168;28;20504;-77
2023/08/31 07:22:37;;;;;;;27.65;17.95;;;;;;;16.90;100.00;-18482.31;5027940;28;20033;-77
2023/08/31 07:25:03;;;;;;;26.38;17.70;;;;;;;17.01;100.00;-18485.03;5012870;28;20048;-77
2023/08/31 07:27:29;;;;;;;24.17;14.93;;;;;;;16.94;100.00;-18483.13;5011956;28;20053;-77
2023/08/31 07:29:55;;;;;;;25.67;14.57;;;;;;;16.91;100.00;-18482.59;5023388;28;20068;-77
2023/08/31 07:32:20;;;;;;;24.10;16.95;;;;;;;17.26;100.00;-18491.72;5022830;28;20053;-76
2023/08/31 07:34:45;;;;;;;20.58;13.98;;;;;;;17.25;100.00;-18491.47;5021709;28;20074;-76
2023/08/31 07:37:11;;;;;;;21.80;15.85;;;;;;;17.33;100.00;-18493.78;5028230;28;20037;-76
2023/08/31 07:39:36;;;;;;;22.98;14.05;;;;;;;17.41;100.00;-18495.69;5028035;28;20545;-77
2023/08/31 07:42:02;;;;;;;22.58;13.90;;;;;;;17.44;100.00;-18496.50;5006238;28;20104;-76
2023/08/31 07:44:27;;;;;;;17.85;10.95;;;;;;;17.27;100.00;-18492.16;5026155;28;20123;-76
2023/08/31 07:46:52;;;;;;;19.52;12.85;;;;;;;17.34;100.00;-18494.06;5024978;28;20041;-77
2023/08/31 07:49:18;;;;;;;17.83;11.85;;;;;;;17.53;100.00;-18499.09;5027067;28;20682;-76
2023/08/31 07:51:43;;;;;;;17.63;11.02;;;;;;;17.59;100.00;-18500.59;5024152;28;20558;-76
2023/08/31 07:54:09;;;;;;;16.95;10.82;;;;;;;17.69;100.00;-18503.34;5025847;28;20061;-77
2023/08/31 07:56:34;;;;;;;16.13;9.93;;;;;;;17.84;100.00;-18507.16;5027043;28;20084;-77
2023/08/31 07:58:59;;;;;;;15.07;9.35;;;;;;;17.78;100.00;-18505.81;5027914;28;20065;-76
2023/08/31 08:01:25;;;;;;;15.82;10.65;;;;;;;18.01;100.00;-18511.81;5022135;28;20107;-77
2023/08/31 08:03:50;;;;;;;16.15;9.13;;;;;;;18.06;100.00;-18513.16;5028380;28;20127;-76
2023/08/31 08:06:15;;;;;;;14.88;8.02;;;;;;;17.58;100.00;-18500.34;5025412;28;20124;-77
2023/08/31 08:08:41;;;;;;;13.38;8.70;;;;;;;17.83;100.00;-18506.88;5018130;28;20521;-77
2023/08/31 08:11:06;;;;;;;11.55;8.13;;;;;;;17.97;100.00;-18510.72;5005092;28;20042;-77
2023/08/31 08:13:32;;;;;;;14.25;8.10;;;;;;;18.03;100.00;-18512.47;5025480;28;20049;-76
2023/08/31 08:15:57;;;;;;;12.65;7.95;;;;;;;18.28;100.00;-18519.03;5023536;28;20041;-77
2023/08/31 08:18:22;;;;;;;12.50;7.53;;;;;;;18.36;100.00;-18521.22;5026742;28;20045;-76
2023/08/31 08:20:50;;;;;;;9.88;6.70;;;;;;;18.47;100.00;-18524.06;5025183;28;20041;-77
2023/08/31 08:23:15;;;;;;;11.75;6.60;;;;;;;18.60;100.00;-18527.63;5009157;28;20034;-76
2023/08/31 08:25:40;;;;;;;11.85;6.30;;;;;;;18.64;100.00;-18528.56;5027593;28;20393;-77
2023/08/31 08:28:06;;;;;;;11.07;7.28;;;;;;;18.45;100.00;-18523.53;5024246;28;20109;-77
2023/08/31 08:30:31;;;;;;;14.20;7.65;;;;;;;18.67;100.00;-18529.53;5006938;28;20048;-77
2023/08/31 08:32:57;;;;;;;9.40;5.82;;;;;;;18.53;100.00;-18525.56;5009195;28;20467;-77
2023/08/31 08:35:22;;;;;;;10.77;6.18;;;;;;;18.66;100.00;-18529.13;5025114;28;20045;-77
2023/08/31 08:37:48;;;;;;;11.00;6.63;;;;;;;18.61;100.00;-18527.88;5020169;28;20787;-77
2023/08/31 08:40:13;;;;;;;9.00;6.07;;;;;;;18.61;100.00;-18527.88;5012163;28;20056;-76
2023/08/31 08:42:41;;;;;;;11.23;6.70;;;;;;;18.67;100.00;-18529.53;5025092;28;20037;-77
2023/08/31 08:45:16;;;;;;;10.77;6.22;;;;;;;18.92;100.00;-18536.06;5024226;28;20555;-77
2023/08/31 08:47:45;;;;;;;7.53;5.32;;;;;;;19.01;100.00;-18538.41;5007318;28;20124;-77
2023/08/31 08:50:12;;;;;;;10.93;5.50;;;;;;;18.88;100.00;-18535.00;5005981;28;20044;-77
2023/08/31 08:52:41;;;;;;;9.25;5.45;;;;;;;19.04;100.00;-18539.22;5023036;28;20046;-76
2023/08/31 08:55:07;;;;;;;;;;;;;;;19.24;100.00;-18544.53;5025560;28;20041;-76
2023/08/31 08:57:34;;;;;;;8.38;4.68;;;;;;;19.15;100.00;-18542.34;5012855;28;19920;-77
2023/08/31 08:59:59;;;;;;;8.20;4.70;;;;;;;19.19;100.00;-18543.31;5028733;28;20055;-76
2023/08/31 09:02:25;;;;;;;8.80;4.50;;;;;;;19.31;100.00;-18546.44;5007062;28;20128;-77
2023/08/31 09:04:54;;;;;;;7.53;3.70;;;;;;;19.34;100.00;-18547.25;5027849;28;20133;-77
2023/08/31 09:07:23;;;;;;;9.10;4.53;;;;;;;19.38;100.00;-18548.47;5029003;28;20124;-77
2023/08/31 09:09:53;;;;;;;6.55;4.28;;;;;;;19.25;100.00;-18544.78;5029431;28;20120;-76
2023/08/31 09:12:20;;;;;;;7.18;4.63;;;;;;;19.38;100.00;-18548.34;5029539;28;20041;-76
2023/08/31 09:14:59;;;;;;;6.18;3.25;;;;;;;19.57;100.00;-18553.50;5001357;28;20054;-77
2023/08/31 09:17:27;;;;;;;6.85;4.10;;;;;;;19.91;100.00;-18562.38;5024262;28;20052;-77
2023/08/31 09:20:00;;;;;;;5.65;3.47;;;;;;;19.76;100.00;-18558.41;5010178;28;20044;-76
2023/08/31 09:22:26;;;;;;;5.70;2.80;;;;;;;19.77;100.00;-18558.84;5028211;28;20052;-77
2023/08/31 09:24:51;;;;;;;5.13;2.15;;;;;;;19.74;100.00;-18558.00;5029212;28;20050;-76
2023/08/31 09:27:20;;;;;;;5.70;2.22;;;;;;;19.99;100.00;-18564.69;5025541;28;20484;-77
2023/08/31 09:29:46;;;;;;;4.70;1.98;;;;;;;19.83;100.00;-18560.34;5024478;28;20096;-76
2023/08/31 09:32:16;;;;;;;4.35;2.00;;;;;;;19.58;100.00;-18553.78;5024489;28;20032;-77
2023/08/31 09:34:42;;;;;;;4.30;1.80;;;;;;;19.47;100.00;-18550.78;5025280;28;20148;-77
2023/08/31 09:37:09;;;;;;;4.68;1.90;;;;;;;19.40;100.00;-18548.88;5014789;28;20952;-77
2023/08/31 09:39:41;;;;;;;4.97;2.03;;;;;;;19.90;100.00;-18562.09;5020979;28;20042;-76
2023/08/31 09:42:06;;;;;;;4.43;1.90;;;;;;;20.08;100.00;-18567.00;5018494;28;20042;-77
2023/08/31 09:44:32;;;;;;;6.05;1.50;;;;;;;19.99;98.43;-18564.69;5015437;28;20088;-77
2023/08/31 09:46:58;;;;;;;3.05;1.40;;;;;;;20.06;95.70;-18566.59;5026202;28;20148;-77
2023/08/31 09:49:25;;;;;;;4.70;1.67;;;;;;;20.45;94.67;-18576.94;5026070;28;20048;-77
2023/08/31 09:51:51;;;;;;;2.97;1.40;;;;;;;20.06;95.94;-18566.59;5009297;28;20075;-76
2023/08/31 09:54:18;;;;;;;4.43;1.63;;;;;;;20.08;97.12;-18567.00;5025011;28;20111;-76
2023/08/31 09:56:45;;;;;;;3.30;1.60;;;;;;;20.04;99.53;-18566.03;5021072;28;20045;-78
2023/08/31 09:59:12;;;;;;;4.10;1.60;;;;;;;20.12;100.00;-18567.97;5027576;28;20052;-77
2023/08/31 10:01:39;;;;;;;5.15;2.47;;;;;;;19.87;100.00;-18561.41;5027367;28;20052;-76
2023/08/31 10:04:08;;;;;;;4.30;1.50;;;;;;;19.75;100.00;-18558.28;5025060;28;20041;-77
2023/08/31 10:06:34;;;;;;;4.72;1.75;;;;;;;19.68;100.00;-18556.38;5024551;28;20444;-77
2023/08/31 10:09:00;;;;;;;3.33;1.60;;;;;;;19.58;100.00;-18553.78;5024842;28;20124;-77
2023/08/31 10:11:25;;;;;;;4.00;2.10;;;;;;;19.60;100.00;-18554.19;5017736;28;20588;-76
2023/08/31 10:13:53;;;;;;;7.55;2.10;;;;;;;19.48;100.00;-18551.06;5010502;28;20048;-77
2023/08/31 10:16:19;;;;;;;8.05;3.10;;;;;;;19.59;100.00;-18554.06;5022294;28;20037;-76
2023/08/31 10:18:45;;;;;;;4.28;1.98;;;;;;;19.55;100.00;-18552.97;5024292;28;20034;-76
2023/08/31 10:21:11;;;;;;;7.97;2.78;;;;;;;19.57;100.00;-18553.50;5014496;28;20606;-76
2023/08/31 10:23:46;;;;;;;4.70;2.20;;;;;;;19.61;100.00;-18554.47;5021422;28;20061;-77
2023/08/31 10:26:25;;;;;;;5.82;2.92;;;;;;;19.44;100.00;-18549.84;5020148;28;20045;-76
2023/08/31 10:28:51;;;;;;;6.30;2.67;;;;;;;19.64;100.00;-18555.28;5020014;28;20144;-77
2023/08/31 10:31:17;;;;;;;7.65;2.78;;;;;;;19.65;100.00;-18555.41;5019785;28;20422;-77
2023/08/31 10:33:54;;;;;;;7.97;3.15;;;;;;;19.64;100.00;-18555.16;5024366;28;20564;-76
2023/08/31 10:36:20;;;;;;;6.38;2.42;;;;;;;19.63;100.00;-18554.88;5003998;28;20057;-77
2023/08/31 10:38:57;;;;;;;4.88;2.40;;;;;;;19.84;100.00;-18560.75;5018939;28;20053;-76
2023/08/31 10:41:24;;;;;;;6.80;2.63;;;;;;;20.08;100.00;-18567.00;4998829;28;20042;-76
2023/08/31 10:43:53;;;;;;;7.10;2.33;;;;;;;20.16;100.00;-18569.03;5015179;28;20049;-77
2023/08/31 10:46:28;;;;;;;;;;;;;;;20.36;100.00;-18574.47;5014530;28;20045;-77
2023/08/31 10:49:14;;;;;;;6.07;2.88;;;;;;;20.41;100.00;-18575.84;4999964;28;19921;-77
2023/08/31 10:51:42;;;;;;;6.82;2.75;;;;;;;20.31;100.00;-18573.13;5016784;28;20042;-77
2023/08/31 10:54:34;;;;;;;6.93;3.00;;;;;;;20.32;100.00;-18573.25;5017975;28;20046;-77
2023/08/31 10:57:04;;;;;;;6.28;2.63;;;;;;;20.41;100.00;-18575.84;5000437;28;20052;-77
2023/08/31 10:59:46;;;;;;;5.45;2.78;;;;;;;20.49;97.95;-18578.03;5016670;28;20080;-77
2023/08/31 11:02:31;;;;;;;8.38;3.67;;;;;;;20.86;100.00;-18587.81;5010287;28;20440;-77
2023/08/31 11:05:07;;;;;;;5.40;2.78;;;;;;;20.73;98.57;-18584.41;4986716;28;20064;-78
2023/08/31 11:07:35;;;;;;;5.82;2.90;;;;;;;20.69;96.60;-18583.34;5021871;28;20500;-77
2023/08/31 11:10:12;;;;;;;5.60;3.00;;;;;;;20.79;94.12;-18585.91;5009006;28;20060;-77